Time;durP1;ratioP1;P1;durP2;ratioP2;P2;SDS_P1;SDS_P2;PMS_P1;PMS_P2;Temp;Humidity;BMP_temperature;BMP_pressure;BME280_temperature;BME280_humidity;BME280_pressure;Samples;Min_cycle;Max_cycle;Signal;HPM_P1;HPM_P2
2023/03/11 00:00:44;;;;;;;1.30;1.20;;;;;;;;;;5018504;28;20485;-86
2023/03/11 00:03:12;;;;;;;1.30;1.10;;;;;;;;;;5018216;28;20141;-84
2023/03/11 00:05:41;;;;;;;2.13;1.17;;;;;;;;;;5017270;28;20064;-87
2023/03/11 00:08:10;;;;;;;1.43;1.27;;;;;;;;;;5017780;28;20022;-86
2023/03/11 00:10:38;;;;;;;3.70;2.00;;;;;;;;;;5020270;28;20029;-88
2023/03/11 00:13:05;;;;;;;1.77;1.33;;;;;;;;;;5022564;28;20442;-87
2023/03/11 00:15:32;;;;;;;4.47;1.93;;;;;;;;;;5023359;28;20086;-85
2023/03/11 00:17:59;;;;;;;1.50;1.40;;;;;;;;;;5019933;28;20026;-86
2023/03/11 00:20:34;;;;;;;2.30;1.23;;;;;;;;;;5020970;28;20060;-84
2023/03/11 00:23:02;;;;;;;0.70;0.70;;;;;;;;;;5019764;28;20026;-88
2023/03/11 00:25:29;;;;;;;0.73;0.70;;;;;;;;;;5004396;28;20041;-85
2023/03/11 00:27:56;;;;;;;0.77;0.70;;;;;;;;;;5020705;28;20026;-84
2023/03/11 00:30:22;;;;;;;1.17;0.80;;;;;;;;;;5023019;28;20030;-86
2023/03/11 00:32:49;;;;;;;0.63;0.63;;;;;;;;;;5019779;28;20025;-86
2023/03/11 00:35:18;;;;;;;0.60;0.60;;;;;;;;;;5020365;28;20021;-86
2023/03/11 00:37:45;;;;;;;0.73;0.73;;;;;;;;;;5017263;28;20054;-84
2023/03/11 00:40:16;;;;;;;1.60;0.80;;;;;;;;;;4999843;28;20535;-86
2023/03/11 00:42:42;;;;;;;1.30;1.20;;;;;;;;;;4995519;28;20394;-85
2023/03/11 00:45:08;;;;;;;0.87;0.87;;;;;;;;;;5015371;28;20092;-88
2023/03/11 00:47:33;;;;;;;5.13;1.30;;;;;;;;;;5023383;28;20035;-87
2023/03/11 00:49:59;;;;;;;0.80;0.80;;;;;;;;;;5016364;28;20105;-86
2023/03/11 00:52:24;;;;;;;1.57;1.27;;;;;;;;;;5017785;28;20085;-86
2023/03/11 00:54:50;;;;;;;0.80;0.80;;;;;;;;;;5018842;28;20109;-86
2023/03/11 00:57:16;;;;;;;2.20;0.93;;;;;;;;;;5020319;28;20029;-86
2023/03/11 00:59:41;;;;;;;0.77;0.77;;;;;;;;;;5016085;28;20076;-86
2023/03/11 01:02:07;;;;;;;0.90;0.90;;;;;;;;;;5015465;28;20036;-85
2023/03/11 01:04:32;;;;;;;0.90;0.90;;;;;;;;;;5016027;28;20096;-87
2023/03/11 01:06:58;;;;;;;1.13;0.90;;;;;;;;;;5015977;28;20033;-87
2023/03/11 01:09:24;;;;;;;0.87;0.73;;;;;;;;;;5016261;28;20030;-87
2023/03/11 01:11:50;;;;;;;0.90;0.80;;;;;;;;;;5016612;28;20037;-86
2023/03/11 01:14:16;;;;;;;0.80;0.70;;;;;;;;;;5017437;28;20037;-86
2023/03/11 01:16:42;;;;;;;1.00;1.00;;;;;;;;;;5018529;28;20018;-86
2023/03/11 01:19:07;;;;;;;0.87;0.70;;;;;;;;;;5016677;28;20037;-88
2023/03/11 01:21:33;;;;;;;1.37;1.13;;;;;;;;;;5015968;28;20056;-82
2023/03/11 01:23:58;;;;;;;1.40;1.03;;;;;;;;;;5014365;28;20077;-85
2023/03/11 01:26:24;;;;;;;1.47;0.70;;;;;;;;;;5016675;28;20030;-85
2023/03/11 01:28:50;;;;;;;1.07;0.93;;;;;;;;;;5015748;28;20336;-87
2023/03/11 01:31:16;;;;;;;1.03;0.87;;;;;;;;;;5016261;28;20433;-84
2023/03/11 01:33:41;;;;;;;5.17;0.63;;;;;;;;;;5014719;28;20083;-85
2023/03/11 01:36:07;;;;;;;1.10;0.97;;;;;;;;;;5013438;28;20092;-86
2023/03/11 01:38:33;;;;;;;0.77;0.77;;;;;;;;;;5014750;28;20033;-86
2023/03/11 01:40:58;;;;;;;0.63;0.63;;;;;;;;;;5017539;28;20082;-85
2023/03/11 01:43:46;;;;;;;1.07;0.80;;;;;;;;;;5016583;28;20026;-86
2023/03/11 01:46:13;;;;;;;1.10;0.87;;;;;;;;;;4995618;28;20041;-83
2023/03/11 01:48:45;;;;;;;1.50;0.97;;;;;;;;;;4994707;28;20057;-87
2023/03/11 01:51:11;;;;;;;1.10;0.97;;;;;;;;;;4994391;28;20042;-86
2023/03/11 01:53:37;;;;;;;0.93;0.80;;;;;;;;;;4995688;28;20106;-87
2023/03/11 01:56:04;;;;;;;1.50;1.20;;;;;;;;;;4994869;28;20113;-87
2023/03/11 01:58:43;;;;;;;0.60;0.60;;;;;;;;;;4996447;28;20114;-84
2023/03/11 02:01:11;;;;;;;0.70;0.70;;;;;;;;;;4998785;28;20040;-86
2023/03/11 02:03:39;;;;;;;0.60;0.60;;;;;;;;;;5015524;28;20038;-85
2023/03/11 02:06:24;;;;;;;0.60;0.60;;;;;;;;;;5016480;28;20156;-87
2023/03/11 02:08:50;;;;;;;1.50;1.10;;;;;;;;;;5015781;28;20083;-87
2023/03/11 02:11:23;;;;;;;1.17;0.90;;;;;;;;;;5016634;28;20061;-85
2023/03/11 02:13:50;;;;;;;1.60;1.00;;;;;;;;;;5016520;28;20343;-85
2023/03/11 02:16:16;;;;;;;1.70;1.33;;;;;;;;;;5016112;28;20033;-84
2023/03/11 02:18:42;;;;;;;2.67;1.10;;;;;;;;;;5015993;28;20056;-85
2023/03/11 02:21:28;;;;;;;1.53;1.07;;;;;;;;;;5015689;28;20026;-84
2023/03/11 02:24:12;;;;;;;1.23;1.13;;;;;;;;;;5016574;28;20109;-85
2023/03/11 02:27:00;;;;;;;1.47;1.37;;;;;;;;;;5017707;28;20048;-84
2023/03/11 02:29:27;;;;;;;1.37;1.27;;;;;;;;;;5018682;28;20060;-87
2023/03/11 02:31:54;;;;;;;1.93;1.50;;;;;;;;;;5018203;28;20060;-86
2023/03/11 02:34:25;;;;;;;2.87;1.17;;;;;;;;;;5017827;28;20025;-85
2023/03/11 02:36:50;;;;;;;1.20;1.10;;;;;;;;;;5016877;28;20032;-86
2023/03/11 02:39:16;;;;;;;1.30;1.20;;;;;;;;;;5014486;28;20029;-84
2023/03/11 02:41:45;;;;;;;3.27;1.50;;;;;;;;;;5016213;28;20033;-84
2023/03/11 02:44:14;;;;;;;1.20;1.10;;;;;;;;;;5016955;28;20033;-86
2023/03/11 02:46:41;;;;;;;4.10;1.50;;;;;;;;;;5015980;28;20493;-83
2023/03/11 02:49:08;;;;;;;1.43;1.20;;;;;;;;;;5018079;28;20117;-86
2023/03/11 02:51:34;;;;;;;2.13;1.40;;;;;;;;;;5016061;28;20056;-85
2023/03/11 02:54:03;;;;;;;4.43;1.60;;;;;;;;;;5020175;28;20006;-85
2023/03/11 02:56:29;;;;;;;2.33;1.30;;;;;;;;;;5017833;28;20060;-84
2023/03/11 02:58:55;;;;;;;3.13;1.50;;;;;;;;;;5018969;28;20418;-84
2023/03/11 03:01:21;;;;;;;2.07;1.53;;;;;;;;;;5014814;28;20022;-86
2023/03/11 03:03:46;;;;;;;2.03;1.50;;;;;;;;;;4998918;28;20030;-86
2023/03/11 03:06:12;;;;;;;1.57;1.20;;;;;;;;;;5020365;28;20038;-86
2023/03/11 03:08:38;;;;;;;1.67;1.57;;;;;;;;;;5023407;28;20553;-84
2023/03/11 03:11:04;;;;;;;1.83;1.53;;;;;;;;;;5023213;28;20016;-86
2023/03/11 03:13:31;;;;;;;1.40;1.30;;;;;;;;;;5024527;28;20030;-86
2023/03/11 03:15:57;;;;;;;2.17;1.37;;;;;;;;;;5022794;28;20324;-83
2023/03/11 03:18:23;;;;;;;1.33;1.17;;;;;;;;;;5021695;28;20057;-84
2023/03/11 03:20:49;;;;;;;1.57;1.23;;;;;;;;;;5021049;28;20060;-86
2023/03/11 03:23:15;;;;;;;2.57;1.37;;;;;;;;;;5023491;28;20148;-86
2023/03/11 03:25:42;;;;;;;2.77;1.73;;;;;;;;;;5019299;28;20100;-86
2023/03/11 03:28:08;;;;;;;2.13;1.30;;;;;;;;;;5018665;28;20109;-85
2023/03/11 03:30:33;;;;;;;2.00;1.53;;;;;;;;;;5017850;28;20068;-84
2023/03/11 03:32:59;;;;;;;1.07;0.97;;;;;;;;;;5017052;28;20507;-85
2023/03/11 03:35:25;;;;;;;2.33;1.20;;;;;;;;;;5017173;28;20034;-83
2023/03/11 03:37:51;;;;;;;2.07;1.90;;;;;;;;;;5019702;28;20088;-85
2023/03/11 03:40:17;;;;;;;1.53;1.30;;;;;;;;;;5018204;28;20061;-85
2023/03/11 03:42:42;;;;;;;2.13;1.10;;;;;;;;;;5019518;28;20037;-87
2023/03/11 03:45:08;;;;;;;1.03;0.90;;;;;;;;;;5017687;28;20056;-87
2023/03/11 03:47:35;;;;;;;1.30;1.00;;;;;;;;;;5019290;28;20587;-84
2023/03/11 03:50:03;;;;;;;2.07;1.10;;;;;;;;;;5018571;28;20026;-86
2023/03/11 03:52:28;;;;;;;3.20;0.90;;;;;;;;;;5018116;28;20060;-84
2023/03/11 03:54:54;;;;;;;0.90;0.90;;;;;;;;;;5018982;28;20023;-85
2023/03/11 03:57:19;;;;;;;1.17;0.90;;;;;;;;;;5019978;28;20021;-85
2023/03/11 03:59:45;;;;;;;0.93;0.80;;;;;;;;;;5021723;28;20032;-85
2023/03/11 04:02:10;;;;;;;1.03;0.80;;;;;;;;;;5019604;28;20030;-86
2023/03/11 04:04:36;;;;;;;1.23;1.00;;;;;;;;;;5019412;28;20085;-86
2023/03/11 04:07:04;;;;;;;0.87;0.80;;;;;;;;;;5018584;28;20030;-86
2023/03/11 04:09:31;;;;;;;0.93;0.90;;;;;;;;;;5019226;28;20222;-86
2023/03/11 04:11:56;;;;;;;0.77;0.77;;;;;;;;;;5016645;28;20107;-87
2023/03/11 04:14:22;;;;;;;2.37;1.10;;;;;;;;;;5015136;28;20018;-83
2023/03/11 04:16:48;;;;;;;0.90;0.90;;;;;;;;;;5017615;28;20037;-87
2023/03/11 04:19:13;;;;;;;4.40;1.10;;;;;;;;;;5019532;28;20030;-86
2023/03/11 04:21:39;;;;;;;0.80;0.77;;;;;;;;;;5016326;28;20099;-86
2023/03/11 04:24:04;;;;;;;1.00;1.00;;;;;;;;;;5012780;28;20034;-84
2023/03/11 04:26:30;;;;;;;1.57;1.00;;;;;;;;;;5014757;28;20056;-86
2023/03/11 04:28:55;;;;;;;3.40;1.20;;;;;;;;;;5029562;28;20033;-85
2023/03/11 04:31:21;;;;;;;1.00;0.90;;;;;;;;;;5021041;28;20478;-86
2023/03/11 04:33:46;;;;;;;1.57;1.13;;;;;;;;;;5016863;28;20077;-86
2023/03/11 04:36:12;;;;;;;1.60;1.10;;;;;;;;;;5018309;28;20025;-86
2023/03/11 04:38:38;;;;;;;1.27;1.13;;;;;;;;;;5017982;28;20045;-86
2023/03/11 04:41:05;;;;;;;1.83;1.20;;;;;;;;;;5016997;28;20054;-85
2023/03/11 04:43:32;;;;;;;0.70;0.70;;;;;;;;;;5018827;28;20643;-86
2023/03/11 04:45:58;;;;;;;1.63;1.20;;;;;;;;;;5017981;28;20043;-86
2023/03/11 04:48:25;;;;;;;1.70;1.17;;;;;;;;;;5018236;28;20089;-87
2023/03/11 04:50:51;;;;;;;1.90;1.00;;;;;;;;;;5018094;28;20026;-86
2023/03/11 04:53:17;;;;;;;2.27;1.00;;;;;;;;;;5015567;28;20059;-85
2023/03/11 04:55:42;;;;;;;2.00;1.13;;;;;;;;;;5016361;28;20034;-86
2023/03/11 04:58:08;;;;;;;1.07;0.90;;;;;;;;;;5015607;28;20041;-86
2023/03/11 05:00:33;;;;;;;1.00;0.90;;;;;;;;;;5017201;28;20421;-84
2023/03/11 05:02:59;;;;;;;1.20;1.10;;;;;;;;;;5016131;28;20053;-86
2023/03/11 05:05:24;;;;;;;1.10;1.00;;;;;;;;;;5015427;28;20393;-84
2023/03/11 05:07:50;;;;;;;1.20;1.07;;;;;;;;;;5017394;28;20481;-85
2023/03/11 05:10:21;;;;;;;1.30;1.20;;;;;;;;;;5017202;28;20022;-86
2023/03/11 05:12:50;;;;;;;17.33;1.43;;;;;;;;;;5017535;28;20053;-86
2023/03/11 05:15:16;;;;;;;2.20;1.20;;;;;;;;;;5017168;28;20121;-85
2023/03/11 05:17:42;;;;;;;1.20;1.10;;;;;;;;;;5018471;28;20137;-85
2023/03/11 05:20:09;;;;;;;1.20;0.83;;;;;;;;;;5017328;28;20049;-81
2023/03/11 05:22:34;;;;;;;1.30;1.07;;;;;;;;;;5016642;28;20029;-85
2023/03/11 05:25:00;;;;;;;2.13;1.27;;;;;;;;;;5016324;28;20102;-84
2023/03/11 05:27:25;;;;;;;1.20;0.87;;;;;;;;;;5017638;28;20121;-87
2023/03/11 05:29:51;;;;;;;1.37;1.20;;;;;;;;;;5017087;28;20053;-85
2023/03/11 05:32:18;;;;;;;2.83;1.03;;;;;;;;;;5017346;28;20044;-85
2023/03/11 05:34:44;;;;;;;2.10;1.27;;;;;;;;;;5018657;28;20165;-87
2023/03/11 05:37:10;;;;;;;1.23;0.90;;;;;;;;;;5017588;28;20043;-87
2023/03/11 05:39:36;;;;;;;1.33;1.00;;;;;;;;;;5018555;28;20108;-86
2023/03/11 05:42:02;;;;;;;2.23;1.33;;;;;;;;;;5016370;28;20030;-84
2023/03/11 05:44:28;;;;;;;0.93;0.87;;;;;;;;;;5013554;28;20048;-85
2023/03/11 05:46:53;;;;;;;2.20;1.37;;;;;;;;;;5015198;28;20478;-84
2023/03/11 05:49:20;;;;;;;1.43;1.03;;;;;;;;;;5014306;28;20034;-85
2023/03/11 05:51:46;;;;;;;2.23;1.30;;;;;;;;;;5016139;28;20025;-85
2023/03/11 05:54:13;;;;;;;3.37;1.40;;;;;;;;;;5015796;28;20390;-86
2023/03/11 05:56:41;;;;;;;1.93;1.03;;;;;;;;;;5015648;28;20533;-84
2023/03/11 05:59:07;;;;;;;1.13;0.97;;;;;;;;;;5018663;28;20385;-85
2023/03/11 06:01:33;;;;;;;1.00;0.90;;;;;;;;;;5017858;28;20059;-84
2023/03/11 06:03:59;;;;;;;3.73;1.20;;;;;;;;;;5018145;28;20038;-85
2023/03/11 06:06:25;;;;;;;1.70;1.13;;;;;;;;;;5017000;28;20034;-83
2023/03/11 06:08:50;;;;;;;0.80;0.80;;;;;;;;;;4999789;28;20091;-83
2023/03/11 06:11:17;;;;;;;1.13;0.77;;;;;;;;;;5017739;28;20030;-86
2023/03/11 06:13:42;;;;;;;1.77;0.97;;;;;;;;;;5017465;28;20021;-86
2023/03/11 06:16:08;;;;;;;0.90;0.90;;;;;;;;;;5015066;28;20415;-87
2023/03/11 06:18:34;;;;;;;1.00;0.90;;;;;;;;;;5015436;28;20034;-84
2023/03/11 06:21:01;;;;;;;1.40;1.30;;;;;;;;;;5015669;28;20039;-86
2023/03/11 06:23:27;;;;;;;2.83;0.90;;;;;;;;;;5015072;28;20040;-85
2023/03/11 06:25:57;;;;;;;1.17;0.80;;;;;;;;;;5015174;28;20036;-83
2023/03/11 06:28:23;;;;;;;5.60;1.07;;;;;;;;;;5015513;28;20141;-85
2023/03/11 06:30:48;;;;;;;0.93;0.80;;;;;;;;;;5013538;28;20064;-85
2023/03/11 06:33:14;;;;;;;0.87;0.87;;;;;;;;;;5014837;28;20401;-84
2023/03/11 06:35:40;;;;;;;2.07;1.17;;;;;;;;;;5015012;28;20126;-86
2023/03/11 06:38:06;;;;;;;1.27;1.10;;;;;;;;;;5014335;28;20041;-86
2023/03/11 06:40:32;;;;;;;0.90;0.73;;;;;;;;;;5015327;28;20042;-86
2023/03/11 06:42:57;;;;;;;2.07;0.90;;;;;;;;;;5014563;28;20030;-86
2023/03/11 06:45:23;;;;;;;1.23;1.00;;;;;;;;;;5015556;28;20030;-87
2023/03/11 06:47:49;;;;;;;1.57;0.70;;;;;;;;;;5015176;28;20037;-83
2023/03/11 06:50:15;;;;;;;0.87;0.60;;;;;;;;;;5017457;28;20029;-86
2023/03/11 06:52:40;;;;;;;0.50;0.50;;;;;;;;;;5015340;28;20069;-86
2023/03/11 06:55:06;;;;;;;1.37;0.80;;;;;;;;;;5015987;28;20006;-88
2023/03/11 06:57:32;;;;;;;1.10;0.80;;;;;;;;;;5015800;28;20412;-84
2023/03/11 06:59:58;;;;;;;0.87;0.83;;;;;;;;;;5015186;28;20035;-85
2023/03/11 07:02:23;;;;;;;1.33;1.00;;;;;;;;;;5014040;28;20028;-84
2023/03/11 07:04:49;;;;;;;0.93;0.67;;;;;;;;;;5014337;28;20036;-85
2023/03/11 07:07:15;;;;;;;0.60;0.60;;;;;;;;;;5014457;28;20396;-86
2023/03/11 07:09:40;;;;;;;1.87;1.00;;;;;;;;;;5016117;28;20027;-82
2023/03/11 07:12:06;;;;;;;1.00;0.90;;;;;;;;;;5015572;28;20322;-86
2023/03/11 07:14:32;;;;;;;0.90;0.60;;;;;;;;;;5015349;28;20026;-86
2023/03/11 07:16:57;;;;;;;0.97;0.83;;;;;;;;;;5014854;28;20026;-87
2023/03/11 07:19:23;;;;;;;1.10;0.80;;;;;;;;;;5013680;28;20036;-84
2023/03/11 07:21:48;;;;;;;2.50;1.20;;;;;;;;;;5014222;28;20042;-85
2023/03/11 07:24:14;;;;;;;0.87;0.87;;;;;;;;;;5014252;28;20221;-86
2023/03/11 07:26:40;;;;;;;1.20;1.10;;;;;;;;;;5014255;28;20038;-84
2023/03/11 07:29:08;;;;;;;3.80;1.50;;;;;;;;;;5014854;28;20034;-86
2023/03/11 07:31:36;;;;;;;2.57;1.80;;;;;;;;;;5015188;28;20500;-84
2023/03/11 07:34:04;;;;;;;1.47;0.90;;;;;;;;;;5015589;28;20026;-87
2023/03/11 07:36:31;;;;;;;2.00;1.30;;;;;;;;;;5014276;28;20639;-85
2023/03/11 07:38:59;;;;;;;1.67;1.43;;;;;;;;;;5014407;28;20065;-86
2023/03/11 07:41:25;;;;;;;3.30;1.60;;;;;;;;;;5013237;28;20042;-85
2023/03/11 07:43:56;;;;;;;2.73;1.40;;;;;;;;;;5013618;28;20057;-86
2023/03/11 07:46:23;;;;;;;2.20;1.70;;;;;;;;;;5014726;28;20037;-86
2023/03/11 07:48:50;;;;;;;2.30;1.70;;;;;;;;;;5015352;28;20026;-86
2023/03/11 07:51:23;;;;;;;2.10;1.57;;;;;;;;;;5018303;28;20020;-87
2023/03/11 07:53:52;;;;;;;2.87;1.77;;;;;;;;;;5020576;28;20030;-86
2023/03/11 07:56:21;;;;;;;2.07;1.43;;;;;;;;;;5003321;28;20029;-88
2023/03/11 07:58:47;;;;;;;3.43;1.97;;;;;;;;;;5019210;28;20088;-82
2023/03/11 08:01:16;;;;;;;3.73;1.63;;;;;;;;;;5020278;28;20470;-86
2023/03/11 08:03:48;;;;;;;5.60;1.50;;;;;;;;;;5020170;28;20021;-84
2023/03/11 08:06:16;;;;;;;1.73;1.30;;;;;;;;;;5019032;28;20033;-86
2023/03/11 08:08:42;;;;;;;3.20;1.63;;;;;;;;;;5020278;28;20029;-87
2023/03/11 08:11:08;;;;;;;2.93;1.93;;;;;;;;;;5018493;28;20390;-86
2023/03/11 08:13:34;;;;;;;3.00;1.87;;;;;;;;;;5018886;28;20042;-86
2023/03/11 08:16:03;;;;;;;1.90;1.50;;;;;;;;;;5018203;28;20532;-85
2023/03/11 08:18:29;;;;;;;2.57;1.60;;;;;;;;;;5015694;28;20042;-87
2023/03/11 08:20:55;;;;;;;3.37;1.70;;;;;;;;;;5000154;28;20089;-85
2023/03/11 08:23:21;;;;;;;1.20;1.10;;;;;;;;;;5018709;28;20044;-85
2023/03/11 08:25:46;;;;;;;4.20;1.70;;;;;;;;;;5018046;28;20101;-86
2023/03/11 08:28:12;;;;;;;1.70;1.60;;;;;;;;;;5019538;28;20034;-85
2023/03/11 08:30:37;;;;;;;1.47;1.37;;;;;;;;;;5020011;28;20246;-82
2023/03/11 08:33:03;;;;;;;1.60;1.40;;;;;;;;;;5021087;28;20056;-87
2023/03/11 08:35:30;;;;;;;1.77;1.63;;;;;;;;;;5020229;28;20088;-86
2023/03/11 08:37:55;;;;;;;1.50;1.40;;;;;;;;;;5019449;28;20397;-85
2023/03/11 08:40:22;;;;;;;1.90;1.40;;;;;;;;;;5018512;28;20092;-85
2023/03/11 08:42:48;;;;;;;2.17;1.50;;;;;;;;;;5019553;28;20474;-85
2023/03/11 08:45:14;;;;;;;2.30;1.50;;;;;;;;;;5018537;28;20026;-86
2023/03/11 08:47:39;;;;;;;2.00;1.20;;;;;;;;;;5017573;28;20122;-87
2023/03/11 08:50:11;;;;;;;2.20;1.57;;;;;;;;;;5021305;28;20034;-87
2023/03/11 08:52:37;;;;;;;2.20;1.30;;;;;;;;;;5003546;28;20456;-86
2023/03/11 08:55:03;;;;;;;2.93;1.47;;;;;;;;;;5018282;28;20149;-87
2023/03/11 08:57:30;;;;;;;3.13;1.73;;;;;;;;;;5021694;28;20037;-85
2023/03/11 08:59:57;;;;;;;3.23;1.37;;;;;;;;;;5019909;28;20029;-86
2023/03/11 09:02:26;;;;;;;2.33;1.23;;;;;;;;;;5018656;28;20389;-88
2023/03/11 09:04:53;;;;;;;2.87;1.43;;;;;;;;;;5020314;28;20056;-85
2023/03/11 09:07:18;;;;;;;3.70;1.63;;;;;;;;;;5019023;28;20541;-87
2023/03/11 09:09:44;;;;;;;2.77;1.93;;;;;;;;;;5020081;28;20038;-85
2023/03/11 09:12:12;;;;;;;8.13;2.90;;;;;;;;;;5021638;28;20026;-86
2023/03/11 09:14:39;;;;;;;2.07;1.37;;;;;;;;;;5021795;28;20010;-86
2023/03/11 09:17:05;;;;;;;2.90;2.17;;;;;;;;;;5022194;28;20088;-86
2023/03/11 09:19:31;;;;;;;10.73;1.90;;;;;;;;;;5018844;28;20026;-86
2023/03/11 09:21:59;;;;;;;3.07;1.70;;;;;;;;;;5019914;28;20029;-88
2023/03/11 09:24:24;;;;;;;3.40;1.87;;;;;;;;;;5019163;28;20091;-87
2023/03/11 09:26:50;;;;;;;2.03;1.43;;;;;;;;;;5020071;28;20022;-86
2023/03/11 09:29:15;;;;;;;2.63;1.67;;;;;;;;;;5018965;28;20041;-87
2023/03/11 09:31:41;;;;;;;4.00;1.90;;;;;;;;;;5018142;28;20041;-81
2023/03/11 09:34:07;;;;;;;3.10;1.50;;;;;;;;;;5023051;28;20029;-87
2023/03/11 09:36:32;;;;;;;3.40;1.57;;;;;;;;;;5023963;28;20025;-86
2023/03/11 09:38:59;;;;;;;3.00;1.83;;;;;;;;;;5021728;28;20025;-86
2023/03/11 09:41:33;;;;;;;3.50;2.30;;;;;;;;;;5018858;28;20042;-86
2023/03/11 09:44:20;;;;;;;2.23;1.80;;;;;;;;;;5020367;28;20033;-87
2023/03/11 09:47:13;;;;;;;4.43;1.93;;;;;;;;;;5020502;28;20470;-86
2023/03/11 09:49:44;;;;;;;1.90;1.70;;;;;;;;;;5023132;28;20026;-84
2023/03/11 09:52:23;;;;;;;3.87;2.30;;;;;;;;;;5022021;28;20037;-87
2023/03/11 09:54:52;;;;;;;4.07;2.43;;;;;;;;;;5005070;28;20033;-81
2023/03/11 09:57:27;;;;;;;3.40;2.20;;;;;;;;;;5019527;28;20032;-86
2023/03/11 09:59:54;;;;;;;3.07;2.10;;;;;;;;;;5019717;28;20387;-85
2023/03/11 10:02:25;;;;;;;2.40;1.40;;;;;;;;;;5021756;28;20399;-87
2023/03/11 10:04:58;;;;;;;4.05;2.50;;;;;;;;;;5021759;28;20485;-87
2023/03/11 10:07:38;;;;;;;3.40;2.23;;;;;;;;;;5020900;28;20057;-85
2023/03/11 10:10:05;;;;;;;4.07;2.47;;;;;;;;;;5019115;28;20029;-87
2023/03/11 10:12:54;;;;;;;4.40;2.17;;;;;;;;;;5020194;28;20034;-86
2023/03/11 10:15:47;;;;;;;3.57;2.20;;;;;;;;;;5020520;28;20030;-87
2023/03/11 10:18:19;;;;;;;4.30;1.90;;;;;;;;;;5000720;28;20056;-87
2023/03/11 10:21:03;;;;;;;4.47;2.30;;;;;;;;;;5000358;28;20062;-86
2023/03/11 10:24:13;;;;;;;5.80;2.73;;;;;;;;;;4999710;28;20051;-89
2023/03/11 10:26:47;;;;;;;3.10;2.00;;;;;;;;;;5000622;28;20098;-85
2023/03/11 10:29:22;;;;;;;5.20;2.40;;;;;;;;;;5001554;28;20077;-83
2023/03/11 10:31:57;;;;;;;5.40;2.43;;;;;;;;;;4999815;28;20007;-84
2023/03/11 10:34:23;;;;;;;7.17;2.50;;;;;;;;;;4998694;28;20026;-85
2023/03/11 10:37:16;;;;;;;4.33;2.00;;;;;;;;;;5011495;28;20029;-87
2023/03/11 10:39:41;;;;;;;2.80;1.60;;;;;;;;;;4992852;28;20051;-85
2023/03/11 10:42:28;;;;;;;4.03;2.50;;;;;;;;;;5010841;28;20060;-86
2023/03/11 10:44:53;;;;;;;5.60;2.00;;;;;;;;;;5020291;28;20030;-87
2023/03/11 10:47:24;;;;;;;3.13;2.10;;;;;;;;;;5021889;28;20025;-86
2023/03/11 10:49:51;;;;;;;5.23;2.50;;;;;;;;;;5023808;28;20045;-86
2023/03/11 10:52:18;;;;;;;3.97;2.40;;;;;;;;;;5005332;28;20030;-86
2023/03/11 10:54:47;;;;;;;5.33;2.50;;;;;;;;;;5022846;28;20495;-82
2023/03/11 10:57:36;;;;;;;4.60;2.27;;;;;;;;;;5022270;28;20037;-86
2023/03/11 11:00:11;;;;;;;3.07;2.10;;;;;;;;;;5020864;28;20026;-87
2023/03/11 11:02:40;;;;;;;4.13;2.50;;;;;;;;;;5021328;28;20045;-86
2023/03/11 11:05:14;;;;;;;3.37;2.57;;;;;;;;;;5018918;28;20054;-86
2023/03/11 11:07:41;;;;;;;4.23;2.43;;;;;;;;;;5022716;28;20030;-87
2023/03/11 11:10:10;;;;;;;3.07;2.07;;;;;;;;;;5021945;28;20382;-89
2023/03/11 11:12:58;;;;;;;6.73;2.47;;;;;;;;;;5020108;28;20060;-87
2023/03/11 11:15:29;;;;;;;3.77;2.30;;;;;;;;;;5018642;28;20072;-87
2023/03/11 11:18:01;;;;;;;2.72;2.20;;;;;;;;;;5018389;28;20407;-84
2023/03/11 11:20:30;;;;;;;2.33;2.13;;;;;;;;;;5018862;28;20048;-85
2023/03/11 11:23:03;;;;;;;3.37;2.13;;;;;;;;;;5018826;28;20054;-84
2023/03/11 11:25:33;;;;;;;5.03;2.30;;;;;;;;;;5007416;28;20033;-84
2023/03/11 11:28:13;;;;;;;2.77;2.17;;;;;;;;;;5024133;28;20038;-84
2023/03/11 11:30:53;;;;;;;4.10;2.50;;;;;;;;;;5027570;28;20029;-85
2023/03/11 11:33:31;;;;;;;4.70;2.17;;;;;;;;;;5028333;28;20030;-85
2023/03/11 11:36:05;;;;;;;5.23;2.60;;;;;;;;;;5011610;28;20056;-83
2023/03/11 11:38:32;;;;;;;3.00;2.70;;;;;;;;;;5007631;28;20026;-85
2023/03/11 11:41:01;;;;;;;3.40;2.10;;;;;;;;;;5023266;28;20365;-86
2023/03/11 11:43:48;;;;;;;4.47;2.53;;;;;;;;;;5019808;28;20010;-84
2023/03/11 11:46:37;;;;;;;2.83;2.50;;;;;;;;;;5006692;28;20042;-86
2023/03/11 11:49:12;;;;;;;5.23;2.73;;;;;;;;;;5002036;28;20034;-85
2023/03/11 11:51:43;;;;;;;3.53;2.80;;;;;;;;;;5004224;28;20093;-86
2023/03/11 11:54:41;;;;;;;3.13;2.60;;;;;;;;;;5004134;28;20030;-84
2023/03/11 11:57:16;;;;;;;3.97;2.70;;;;;;;;;;5006321;28;20392;-84
2023/03/11 11:59:43;;;;;;;5.20;3.23;;;;;;;;;;5022626;28;20006;-86
2023/03/11 12:03:03;;;;;;;4.47;2.57;;;;;;;;;;5024400;28;20033;-86
2023/03/11 12:05:31;;;;;;;4.03;3.23;;;;;;;;;;5021884;28;20022;-87
2023/03/11 12:08:15;;;;;;;4.70;3.10;;;;;;;;;;5019561;28;20042;-87
2023/03/11 12:10:53;;;;;;;4.90;3.07;;;;;;;;;;5024429;28;20469;-87
2023/03/11 12:13:40;;;;;;;6.83;3.53;;;;;;;;;;5023383;28;20042;-86
2023/03/11 12:16:29;;;;;;;6.50;2.80;;;;;;;;;;5023624;28;20018;-86
2023/03/11 12:19:10;;;;;;;5.43;3.70;;;;;;;;;;5025299;28;20056;-87
2023/03/11 12:21:41;;;;;;;4.97;2.60;;;;;;;;;;5025519;28;20045;-85
2023/03/11 12:24:13;;;;;;;4.47;2.80;;;;;;;;;;5023534;28;20026;-86
2023/03/11 12:26:43;;;;;;;4.90;3.17;;;;;;;;;;5023194;28;20058;-86
2023/03/11 12:29:27;;;;;;;4.30;2.80;;;;;;;;;;5023133;28;20030;-86
2023/03/11 12:31:55;;;;;;;6.10;3.07;;;;;;;;;;5021568;28;20061;-87
2023/03/11 12:34:23;;;;;;;8.47;2.77;;;;;;;;;;5022198;28;20018;-86
2023/03/11 12:36:51;;;;;;;6.10;3.23;;;;;;;;;;5022244;28;20033;-85
2023/03/11 12:39:31;;;;;;;7.37;3.23;;;;;;;;;;5023063;28;20441;-87
2023/03/11 12:42:19;;;;;;;8.00;3.60;;;;;;;;;;5021050;28;20040;-86
2023/03/11 12:44:45;;;;;;;10.87;3.40;;;;;;;;;;5021219;28;20048;-82
2023/03/11 12:47:27;;;;;;;5.97;3.70;;;;;;;;;;5022787;28;20041;-87
2023/03/11 12:50:38;;;;;;;7.03;3.92;;;;;;;;;;5022280;28;20045;-86
2023/03/11 12:53:03;;;;;;;6.07;3.50;;;;;;;;;;5011473;28;20030;-87
2023/03/11 12:55:32;;;;;;;6.70;3.37;;;;;;;;;;5020817;28;20345;-85
2023/03/11 12:58:26;;;;;;;5.47;3.47;;;;;;;;;;5020400;28;20044;-86
2023/03/11 13:01:16;;;;;;;7.50;3.70;;;;;;;;;;5020595;28;20038;-86
2023/03/11 13:04:03;;;;;;;6.17;3.10;;;;;;;;;;5021752;28;20022;-86
2023/03/11 13:06:55;;;;;;;4.77;2.97;;;;;;;;;;5020665;28;20466;-83
2023/03/11 13:09:20;;;;;;;7.28;3.97;;;;;;;;;;5003682;28;20042;-84
2023/03/11 13:11:47;;;;;;;6.67;3.80;;;;;;;;;;5003029;28;20030;-84
2023/03/11 13:14:28;;;;;;;7.73;3.90;;;;;;;;;;5021259;28;20061;-84
2023/03/11 13:16:54;;;;;;;4.80;3.30;;;;;;;;;;5019939;28;20025;-82
2023/03/11 13:19:30;;;;;;;7.60;2.83;;;;;;;;;;5021038;28;20030;-85
2023/03/11 13:21:58;;;;;;;4.40;3.03;;;;;;;;;;5020445;28;20041;-87
2023/03/11 13:24:28;;;;;;;7.83;4.37;;;;;;;;;;5023582;28;20050;-85
2023/03/11 13:27:05;;;;;;;9.07;4.30;;;;;;;;;;5023039;28;20034;-82
2023/03/11 13:29:52;;;;;;;7.03;3.77;;;;;;;;;;5022790;28;20037;-84
2023/03/11 13:32:40;;;;;;;8.00;3.87;;;;;;;;;;5022200;28;20021;-85
2023/03/11 13:35:08;;;;;;;7.73;3.77;;;;;;;;;;5019786;28;20130;-87
2023/03/11 13:38:11;;;;;;;5.97;3.63;;;;;;;;;;5021857;28;20037;-86
2023/03/11 13:40:45;;;;;;;7.82;4.30;;;;;;;;;;5021309;28;20045;-87
2023/03/11 13:43:15;;;;;;;12.53;3.73;;;;;;;;;;5020546;28;20062;-85
2023/03/11 13:45:48;;;;;;;4.97;2.80;;;;;;;;;;5020914;28;20010;-85
2023/03/11 13:48:19;;;;;;;7.23;4.07;;;;;;;;;;5019362;28;20057;-85
2023/03/11 13:50:54;;;;;;;6.72;3.72;;;;;;;;;;5020613;28;20033;-85
2023/03/11 13:53:24;;;;;;;6.87;4.03;;;;;;;;;;5019175;28;20139;-82
2023/03/11 13:55:50;;;;;;;6.63;4.10;;;;;;;;;;5019485;28;20034;-85
2023/03/11 13:58:27;;;;;;;6.27;4.57;;;;;;;;;;5019382;28;20030;-86
2023/03/11 14:00:55;;;;;;;6.23;3.70;;;;;;;;;;5018089;28;20022;-87
2023/03/11 14:03:24;;;;;;;5.80;3.67;;;;;;;;;;5019221;28;20036;-87
2023/03/11 14:06:04;;;;;;;6.30;3.60;;;;;;;;;;5020142;28;20446;-86
2023/03/11 14:08:34;;;;;;;12.30;4.87;;;;;;;;;;5022028;28;20026;-86
2023/03/11 14:11:11;;;;;;;9.03;4.33;;;;;;;;;;5021406;28;20033;-88
2023/03/11 14:13:52;;;;;;;7.27;4.00;;;;;;;;;;5021560;28;20032;-86
2023/03/11 14:16:20;;;;;;;6.67;4.60;;;;;;;;;;5020392;28;20025;-88
2023/03/11 14:19:03;;;;;;;11.30;4.70;;;;;;;;;;5021055;28;20029;-87
2023/03/11 14:21:30;;;;;;;9.77;4.30;;;;;;;;;;5022157;28;20026;-87
2023/03/11 14:23:56;;;;;;;9.63;4.40;;;;;;;;;;5021711;28;20102;-87
2023/03/11 14:26:27;;;;;;;8.50;4.67;;;;;;;;;;5022897;28;20029;-87
2023/03/11 14:28:57;;;;;;;6.88;4.68;;;;;;;;;;5024034;28;20030;-85
2023/03/11 14:31:32;;;;;;;6.50;4.13;;;;;;;;;;5021753;28;20033;-85
2023/03/11 14:34:05;;;;;;;8.27;3.70;;;;;;;;;;5022526;28;20034;-84
2023/03/11 14:36:47;;;;;;;4.47;3.43;;;;;;;;;;5022517;28;20030;-85
2023/03/11 14:39:32;;;;;;;6.50;3.73;;;;;;;;;;5014340;28;20057;-87
2023/03/11 14:42:07;;;;;;;3.53;2.80;;;;;;;;;;5001571;28;20093;-85
2023/03/11 14:44:40;;;;;;;6.00;3.03;;;;;;;;;;5017343;28;20453;-85
2023/03/11 14:47:20;;;;;;;5.57;3.60;;;;;;;;;;5020877;28;20382;-86
2023/03/11 14:49:48;;;;;;;6.23;3.53;;;;;;;;;;5021188;28;20076;-86
2023/03/11 14:52:20;;;;;;;5.40;3.13;;;;;;;;;;5017019;28;20061;-87
2023/03/11 14:54:50;;;;;;;5.30;3.28;;;;;;;;;;5016624;28;20049;-85
2023/03/11 14:57:30;;;;;;;5.27;3.60;;;;;;;;;;5018549;28;20386;-84
2023/03/11 14:59:56;;;;;;;4.90;3.20;;;;;;;;;;5014070;28;20026;-87